createdAt,value
2017-12-11T00:01:06.433Z,70.5
2017-12-11T00:02:17.903Z,70.9
2017-12-11T00:03:29.345Z,71.3
2017-12-11T00:04:39.388Z,71.1
2017-12-11T00:05:47.251Z,70.9
2017-12-11T00:07:04.073Z,70.5
2017-12-11T00:08:11.737Z,70
2017-12-11T00:09:18.822Z,69.9
2017-12-11T00:10:29.281Z,69.8
2017-12-11T00:11:38.700Z,70.6
2017-12-11T00:12:46.618Z,70.7
2017-12-11T00:13:54.495Z,70.3
2017-12-11T00:15:03.953Z,70
2017-12-11T00:16:11.624Z,69.5
2017-12-11T00:17:15.093Z,69.2
2017-12-11T00:18:22.513Z,68.6
2017-12-11T00:19:26.022Z,68.6
2017-12-11T00:20:30.624Z,68.5
2017-12-11T00:21:34.759Z,68.4
2017-12-11T00:22:38.134Z,68.6
2017-12-11T00:23:41.527Z,68.4
2017-12-11T00:24:44.915Z,68.6
2017-12-11T00:25:50.412Z,68.4
2017-12-11T00:26:53.792Z,68.1
2017-12-11T00:27:57.307Z,68.3
2017-12-11T00:29:04.934Z,67.9
2017-12-11T00:30:08.932Z,67.6
2017-12-11T00:31:12.382Z,67.7
2017-12-11T00:32:15.973Z,67.4
2017-12-11T00:33:19.437Z,67.2
2017-12-11T00:34:23.128Z,67.4
2017-12-11T00:35:26.583Z,67.7
2017-12-11T00:36:31.822Z,67.8
2017-12-11T00:37:35.410Z,67.9
2017-12-11T00:38:39.783Z,68.1
2017-12-11T00:39:46.926Z,68.1
2017-12-11T00:40:51.104Z,68.5
2017-12-11T00:41:54.696Z,69.1
2017-12-11T00:42:59.254Z,69.2
2017-12-11T00:44:02.811Z,69.6
2017-12-11T00:45:06.956Z,69.7
2017-12-11T00:46:11.219Z,69.9
2017-12-11T00:47:15.189Z,70.2
2017-12-11T00:48:19.368Z,70.1
2017-12-11T00:49:23.663Z,70.5
2017-12-11T00:50:33.173Z,71.2
2017-12-11T00:51:37.445Z,71.3
2017-12-11T00:52:40.973Z,71.6
2017-12-11T00:53:46.440Z,72.1
2017-12-11T00:54:51.437Z,72.6
2017-12-11T00:55:58.493Z,72.6
2017-12-11T00:57:03.266Z,72.7
2017-12-11T00:58:10.146Z,73
2017-12-11T00:59:18.777Z,73.3
2017-12-11T01:00:23.352Z,73.7
2017-12-11T01:01:31.811Z,74.4
2017-12-11T01:02:39.166Z,74.8
2017-12-11T01:03:45.715Z,75.2
2017-12-11T01:04:50.723Z,75.7
2017-12-11T01:06:00.171Z,75.8
2017-12-11T01:07:08.145Z,76.4
2017-12-11T01:08:16.404Z,77
2017-12-11T01:09:24.757Z,77.3
2017-12-11T01:10:36.512Z,77.8
2017-12-11T01:11:46.734Z,78
2017-12-11T01:13:02.895Z,78.5
2017-12-11T01:14:17.859Z,78.8
2017-12-11T01:15:25.926Z,78.8
2017-12-11T01:16:36.955Z,79.2
2017-12-11T01:17:48.785Z,79.8
2017-12-11T01:18:58.816Z,80.5
2017-12-11T01:20:13.257Z,81.2
2017-12-11T01:21:22.665Z,81.5
2017-12-11T01:22:36.356Z,81.3
2017-12-11T01:23:50.641Z,81.2
2017-12-11T01:25:17.714Z,82.1
2017-12-11T01:26:29.378Z,82.6
2017-12-11T01:27:40.751Z,82.8
2017-12-11T01:28:49.038Z,83.4
2017-12-11T01:30:05.578Z,83.9
2017-12-11T01:31:17.227Z,82.9
2017-12-11T01:32:25.277Z,83.1
2017-12-11T01:33:35.312Z,83.1
2017-12-11T01:34:43.515Z,83.1
2017-12-11T01:36:01.581Z,83.5
2017-12-11T01:37:34.653Z,83.3
2017-12-11T01:38:50.434Z,83.9
2017-12-11T01:40:07.697Z,83.5
2017-12-11T01:41:19.347Z,83.5
2017-12-11T01:42:30.420Z,83.6
2017-12-11T01:43:46.315Z,84
2017-12-11T01:44:58.775Z,84.3
2017-12-11T01:46:10.920Z,83.9
2017-12-11T01:47:22.200Z,83.6
2017-12-11T01:48:36.956Z,83.9
2017-12-11T01:50:16.591Z,83.6
2017-12-11T01:51:31.917Z,84
2017-12-11T01:52:43.814Z,84.5
2017-12-11T01:54:01.987Z,84.1
2017-12-11T01:55:16.490Z,84.1
2017-12-11T01:56:29.551Z,84.5
2017-12-11T01:57:42.121Z,84.3
2017-12-11T01:58:53.503Z,84.1
2017-12-11T02:00:11.122Z,84.5
2017-12-11T02:01:21.873Z,84.7
2017-12-11T02:02:43.159Z,84.5
2017-12-11T02:03:58.677Z,84.8
2017-12-11T02:05:13.244Z,84.7
2017-12-11T02:06:25.786Z,84.7
2017-12-11T02:07:37.168Z,84.6
2017-12-11T02:08:50.959Z,85
2017-12-11T02:10:02.332Z,85
2017-12-11T02:11:17.929Z,85.1
2017-12-11T02:12:27.702Z,84.8
2017-12-11T02:13:36.075Z,84.6
2017-12-11T02:15:01.989Z,84.6
2017-12-11T02:16:16.602Z,84.8
2017-12-11T02:17:26.625Z,84.3
2017-12-11T02:18:35.677Z,84.3
2017-12-11T02:19:44.371Z,84.2
2017-12-11T02:20:54.759Z,84
2017-12-11T02:22:12.070Z,84
2017-12-11T02:23:21.187Z,84
2017-12-11T02:24:37.711Z,84
2017-12-11T02:25:53.266Z,84
2017-12-11T02:27:13.031Z,83.7
2017-12-11T02:28:25.225Z,84
2017-12-11T02:29:38.446Z,84.1
2017-12-11T02:30:50.382Z,84.1
2017-12-11T02:32:04.619Z,84.3
2017-12-11T02:33:27.519Z,84.3
2017-12-11T02:34:41.938Z,84.2
2017-12-11T02:35:51.482Z,84
2017-12-11T02:37:05.875Z,84
2017-12-11T02:38:19.865Z,84
2017-12-11T02:39:35.698Z,83.9
2017-12-11T02:40:49.513Z,84.2
2017-12-11T02:42:02.787Z,83.6
2017-12-11T02:43:15.540Z,83.3
2017-12-11T02:44:26.242Z,83.2
2017-12-11T02:45:42.511Z,83.2
2017-12-11T02:46:53.812Z,83.4
2017-12-11T02:48:06.913Z,83.2
2017-12-11T02:49:21.029Z,83.2
2017-12-11T02:50:34.328Z,83.4
2017-12-11T02:51:56.454Z,83.4
2017-12-11T02:53:07.215Z,83.2
2017-12-11T02:54:14.566Z,83.1
2017-12-11T02:55:19.448Z,83
2017-12-11T02:56:26.403Z,82.9
2017-12-11T02:57:34.464Z,82.8
2017-12-11T02:58:41.270Z,82.7
2017-12-11T02:59:47.013Z,82.6
2017-12-11T03:00:50.742Z,82.5
2017-12-11T03:01:58.305Z,82.5
2017-12-11T03:03:12.100Z,82.8
2017-12-11T03:04:17.486Z,83
2017-12-11T03:05:20.524Z,83.1
2017-12-11T03:06:26.855Z,82.9
2017-12-11T03:07:30.961Z,82.8
2017-12-11T03:08:35.557Z,82.8
2017-12-11T03:09:38.927Z,82.9
2017-12-11T03:10:45.096Z,83.2
2017-12-11T03:11:49.097Z,82.8
2017-12-11T03:12:53.655Z,82.7
2017-12-11T03:14:00.440Z,82.9
2017-12-11T03:15:05.260Z,82.8
2017-12-11T03:16:08.831Z,82.7
2017-12-11T03:17:12.859Z,82.9
2017-12-11T03:18:16.319Z,82.9
2017-12-11T03:19:19.938Z,82.5
2017-12-11T03:20:23.461Z,82
2017-12-11T03:21:27.055Z,82
2017-12-11T03:22:31.308Z,82.1
2017-12-11T03:23:36.529Z,82.1
2017-12-11T03:24:47.784Z,82.2
2017-12-11T03:25:52.884Z,82.3
2017-12-11T03:26:57.562Z,82.5
2017-12-11T03:28:04.840Z,82.9
2017-12-11T03:29:12.751Z,82.9
2017-12-11T03:30:18.472Z,83.2
2017-12-11T03:31:23.382Z,83.1
2017-12-11T03:32:29.076Z,83.1
2017-12-11T03:33:37.122Z,83.2
2017-12-11T03:34:47.596Z,83.2
2017-12-11T03:36:11.160Z,83.2
2017-12-11T03:37:23.401Z,83.2
2017-12-11T03:38:32.468Z,83.4
2017-12-11T03:39:41.180Z,83.3
2017-12-11T03:40:53.657Z,83.3
2017-12-11T03:42:02.752Z,83.5
2017-12-11T03:43:17.640Z,83.8
2017-12-11T03:44:32.383Z,84.1
2017-12-11T03:45:45.505Z,84.2
2017-12-11T03:46:56.853Z,84.3
2017-12-11T03:48:20.327Z,84.3
2017-12-11T03:49:39.149Z,84.6
2017-12-11T03:50:49.787Z,84.7
2017-12-11T03:51:59.294Z,84.6
2017-12-11T03:53:24.930Z,84.6
2017-12-11T03:54:39.306Z,85
2017-12-11T03:55:55.104Z,84.5
2017-12-11T03:57:08.970Z,84.4
2017-12-11T03:58:20.658Z,84.8
2017-12-11T03:59:35.790Z,84.7
2017-12-11T04:01:02.100Z,84.9
2017-12-11T04:02:14.406Z,85.1
2017-12-11T04:03:25.381Z,85.2
2017-12-11T04:04:41.682Z,84.7
2017-12-11T04:05:52.832Z,84.8
2017-12-11T04:07:01.893Z,85.1
2017-12-11T04:08:08.309Z,85.2
2017-12-11T04:09:18.261Z,85.1
2017-12-11T04:10:23.758Z,85
2017-12-11T04:11:27.808Z,85.1
2017-12-11T04:12:44.404Z,85.2
2017-12-11T04:13:48.548Z,85.2
2017-12-11T04:14:54.272Z,85.1
2017-12-11T04:15:59.602Z,85.3
2017-12-11T04:17:09.963Z,85.4
2017-12-11T04:18:26.884Z,85.1
2017-12-11T04:19:33.310Z,85.1
2017-12-11T04:20:40.126Z,84.9
2017-12-11T04:21:50.856Z,84.9
2017-12-11T04:22:57.354Z,85.1
2017-12-11T04:24:09.125Z,84.9
2017-12-11T04:25:18.184Z,84.9
2017-12-11T04:26:29.884Z,84.9
2017-12-11T04:27:40.480Z,84.6
2017-12-11T04:28:48.616Z,84.6
2017-12-11T04:29:58.614Z,83.7
2017-12-11T04:31:05.400Z,83
2017-12-11T04:32:14.611Z,82.7
2017-12-11T04:33:27.149Z,82.3
2017-12-11T04:34:34.747Z,81.9
2017-12-11T04:35:47.959Z,81.9
2017-12-11T04:36:56.927Z,81.6
2017-12-11T04:38:07.471Z,81.4
2017-12-11T04:39:13.919Z,81.5
2017-12-11T04:40:21.918Z,81.4
2017-12-11T04:41:28.272Z,81.3
2017-12-11T04:42:38.801Z,81
2017-12-11T04:43:48.338Z,81.2
2017-12-11T04:44:56.582Z,81.5
2017-12-11T04:46:03.002Z,81.7
2017-12-11T04:47:15.909Z,81.9
2017-12-11T04:48:24.145Z,82
2017-12-11T04:49:33.152Z,82.5
2017-12-11T04:50:43.947Z,82.6
2017-12-11T04:51:51.094Z,82.6
2017-12-11T04:53:00.007Z,82.7
2017-12-11T04:54:05.861Z,83
2017-12-11T04:55:14.354Z,82.8
2017-12-11T04:56:23.217Z,82.8
2017-12-11T04:57:36.434Z,82.7
2017-12-11T04:59:00.376Z,82.7
2017-12-11T05:00:10.930Z,82.6
2017-12-11T05:01:22.046Z,82.2
2017-12-11T05:02:36.066Z,82
2017-12-11T05:03:47.736Z,82
2017-12-11T05:04:58.872Z,82
2017-12-11T05:06:17.840Z,81.6
2017-12-11T05:07:30.010Z,81.1
2017-12-11T05:08:37.248Z,80.9
2017-12-11T05:09:47.281Z,80.9
2017-12-11T05:11:03.316Z,80.8
2017-12-11T05:12:15.678Z,80.9
2017-12-11T05:13:26.356Z,80.9
2017-12-11T05:14:35.401Z,80.8
2017-12-11T05:15:52.444Z,80.6
2017-12-11T05:17:04.758Z,80.5
2017-12-11T05:18:19.687Z,80.4
2017-12-11T05:19:34.443Z,80.4
2017-12-11T05:20:42.933Z,80.4
2017-12-11T05:21:51.494Z,80.5
2017-12-11T05:23:10.391Z,80.6
2017-12-11T05:24:18.764Z,80.9
2017-12-11T05:25:22.981Z,81.2
2017-12-11T05:26:26.443Z,81.2
2017-12-11T05:27:29.778Z,81.4
2017-12-11T05:28:33.180Z,81.6
2017-12-11T05:29:37.670Z,81.7
2017-12-11T05:30:49.004Z,81.7
2017-12-11T05:31:52.926Z,82.2
2017-12-11T05:32:57.685Z,82.4
2017-12-11T05:34:11.011Z,82.1
2017-12-11T05:35:15.670Z,82.2
2017-12-11T05:36:22.228Z,82.3
2017-12-11T05:37:29.902Z,82.3
2017-12-11T05:38:37.831Z,82.3
2017-12-11T05:39:44.016Z,82.4
2017-12-11T05:40:50.374Z,82.5
2017-12-11T05:41:58.827Z,82.8
2017-12-11T05:43:06.996Z,83.1
2017-12-11T05:44:13.286Z,83.1
2017-12-11T05:45:26.131Z,83.1
2017-12-11T05:46:32.968Z,83.5
2017-12-11T05:47:39.998Z,83.7
2017-12-11T05:48:44.031Z,83.6
2017-12-11T05:49:49.947Z,82.7
2017-12-11T05:50:56.582Z,81
2017-12-11T05:52:01.832Z,79.3
2017-12-11T05:53:06.537Z,77.8
2017-12-11T05:54:11.736Z,78.7
2017-12-11T05:55:17.022Z,79.4
2017-12-11T05:56:28.044Z,80.3
2017-12-11T05:57:33.318Z,80.9
2017-12-11T05:58:38.757Z,81.4
2017-12-11T05:59:42.390Z,81.7
2017-12-11T06:00:49.002Z,81.9
2017-12-11T06:01:53.876Z,81.9
2017-12-11T06:03:00.833Z,82.2
2017-12-11T06:04:06.329Z,82.5
2017-12-11T06:05:12.178Z,82.7
2017-12-11T06:06:17.001Z,83.1
2017-12-11T06:07:28.336Z,83.3
2017-12-11T06:08:34.802Z,83.6
2017-12-11T06:09:40.534Z,83.6
2017-12-11T06:10:45.662Z,84
2017-12-11T06:11:52.912Z,84.2
2017-12-11T06:12:57.945Z,84.1
2017-12-11T06:14:04.403Z,84.3
2017-12-11T06:15:09.716Z,84.5
2017-12-11T06:16:15.927Z,84.4
2017-12-11T06:17:24.411Z,84.8
2017-12-11T06:18:32.158Z,84.9
2017-12-11T06:19:36.177Z,85
2017-12-11T06:20:41.677Z,84.9
2017-12-11T06:21:46.856Z,85.1
2017-12-11T06:22:50.891Z,85.1
2017-12-11T06:23:58.239Z,85
2017-12-11T06:25:03.136Z,84.9
2017-12-11T06:26:09.020Z,84.5
2017-12-11T06:27:13.028Z,84.6
2017-12-11T06:28:16.654Z,84.7
2017-12-11T06:29:27.121Z,84.8
2017-12-11T06:30:32.719Z,84.9
2017-12-11T06:31:37.183Z,84.8
2017-12-11T06:32:43.670Z,84.7
2017-12-11T06:33:52.287Z,84.7
2017-12-11T06:34:57.305Z,84.6
2017-12-11T06:36:05.103Z,84.7
2017-12-11T06:37:15.126Z,84.7
2017-12-11T06:38:20.770Z,84.7
2017-12-11T06:39:25.965Z,84.8
2017-12-11T06:40:35.197Z,84.5
2017-12-11T06:41:39.494Z,84.5
2017-12-11T06:42:45.973Z,84.6
2017-12-11T06:43:51.967Z,84.2
2017-12-11T06:44:58.348Z,83.9
2017-12-11T06:46:05.450Z,84
2017-12-11T06:47:12.725Z,83.4
2017-12-11T06:48:23.109Z,83
2017-12-11T06:49:27.975Z,82.5
2017-12-11T06:50:33.652Z,82.1
2017-12-11T06:51:44.796Z,81.9
2017-12-11T06:52:48.828Z,81.5
2017-12-11T06:53:56.032Z,80.8
2017-12-11T06:55:03.842Z,80.7
2017-12-11T06:56:14.564Z,80.4
2017-12-11T06:57:31.388Z,79.6
2017-12-11T06:58:46.896Z,79.1
2017-12-11T06:59:57.919Z,78.9
2017-12-11T07:01:08.131Z,78.5
2017-12-11T07:02:19.113Z,78.1
2017-12-11T07:03:35.390Z,78
2017-12-11T07:04:48.990Z,78.1
2017-12-11T07:06:00.295Z,78
2017-12-11T07:07:15.859Z,77.7
2017-12-11T07:08:25.054Z,78
2017-12-11T07:09:30.043Z,78.4
2017-12-11T07:10:36.141Z,78.5
2017-12-11T07:11:49.612Z,78.6
2017-12-11T07:13:10.895Z,78.6
2017-12-11T07:14:23.652Z,79
2017-12-11T07:15:43.641Z,78.8
2017-12-11T07:16:57.616Z,78.1
2017-12-11T07:18:08.673Z,77.7
2017-12-11T07:19:17.781Z,77.8
2017-12-11T07:20:25.477Z,77.9
2017-12-11T07:21:35.163Z,78
2017-12-11T07:22:47.019Z,78.1
2017-12-11T07:23:53.631Z,78.1
2017-12-11T07:25:04.266Z,78.1
2017-12-11T07:26:10.064Z,78.2
2017-12-11T07:27:28.715Z,78.3
2017-12-11T07:28:41.178Z,78.6
2017-12-11T07:29:58.697Z,79
2017-12-11T07:31:10.156Z,78.1
2017-12-11T07:32:17.840Z,77.6
2017-12-11T07:33:25.730Z,77.5
2017-12-11T07:34:50.911Z,77.3
2017-12-11T07:36:03.065Z,76.8
2017-12-11T07:37:11.419Z,76
2017-12-11T07:38:36.870Z,75.4
2017-12-11T07:39:51.393Z,74.6
2017-12-11T07:41:02.761Z,74.1
2017-12-11T07:42:12.661Z,74
2017-12-11T07:43:31.967Z,73.6
2017-12-11T07:44:40.655Z,72.7
2017-12-11T07:45:47.369Z,71.5
2017-12-11T07:46:56.550Z,71.4
2017-12-11T07:48:03.828Z,71.2
2017-12-11T07:49:10.101Z,71.2
2017-12-11T07:50:17.698Z,71.5
2017-12-11T07:51:47.195Z,71.7
2017-12-11T07:52:54.947Z,72.1
2017-12-11T07:54:04.381Z,72.5
2017-12-11T07:55:14.111Z,72.9
2017-12-11T07:56:22.809Z,73
2017-12-11T07:57:33.692Z,73.2
2017-12-11T07:58:59.074Z,73.1
2017-12-11T08:00:07.866Z,73
2017-12-11T08:01:21.367Z,72.9
2017-12-11T08:02:26.656Z,72.5
2017-12-11T08:03:33.809Z,72.5
2017-12-11T08:04:48.114Z,72.2
2017-12-11T08:05:56.556Z,72.2
2017-12-11T08:07:22.086Z,71.3
2017-12-11T08:08:28.552Z,71.4
2017-12-11T08:09:34.039Z,70.6
2017-12-11T08:10:43.818Z,70.2
2017-12-11T08:12:02.022Z,70.1
2017-12-11T08:13:15.778Z,70.1
2017-12-11T08:14:25.183Z,70.3
2017-12-11T08:15:39.280Z,70.6
2017-12-11T08:16:44.770Z,70.7
2017-12-11T08:17:48.986Z,70.8
2017-12-11T08:18:57.731Z,70.9
2017-12-11T08:20:28.392Z,70.8
2017-12-11T08:22:03.616Z,70.9
2017-12-11T08:23:17.524Z,70.9
2017-12-11T08:24:27.431Z,70.7
2017-12-11T08:25:33.778Z,70.4
2017-12-11T08:26:40.168Z,70.1
2017-12-11T08:28:01.179Z,70.1
2017-12-11T08:29:08.870Z,69.9
2017-12-11T08:30:20.267Z,69.9
2017-12-11T08:31:26.207Z,70
2017-12-11T08:32:49.984Z,70.1
2017-12-11T08:34:07.172Z,70
2017-12-11T08:36:58.224Z,70.1
2017-12-11T08:38:31.658Z,69.9
2017-12-11T08:40:46.596Z,69.9
2017-12-11T08:42:42.276Z,69.7
2017-12-11T08:44:25.045Z,69.3
2017-12-11T08:45:48.151Z,69.2
2017-12-11T08:47:12.469Z,68.8
2017-12-11T08:48:50.655Z,68.8
2017-12-11T08:50:42.906Z,68.6
2017-12-11T08:52:13.251Z,68.2
2017-12-11T08:53:22.468Z,67.9
2017-12-11T08:54:39.388Z,68
2017-12-11T08:56:23.163Z,67.7
2017-12-11T08:57:55.474Z,67.4
2017-12-11T08:59:05.489Z,67.2
2017-12-11T09:00:16.215Z,66.8
2017-12-11T09:01:44.924Z,66.6
2017-12-11T09:03:01.244Z,66.5
2017-12-11T09:04:42.642Z,66.6
2017-12-11T09:05:56.304Z,66.5
2017-12-11T09:07:25.162Z,66.2
2017-12-11T09:08:37.417Z,66.4
2017-12-11T09:09:53.361Z,66
2017-12-11T09:11:44.558Z,65.9
2017-12-11T09:13:09.226Z,66.5
2017-12-11T09:14:27.055Z,66.4
2017-12-11T09:15:41.676Z,66.2
2017-12-11T09:16:57.942Z,66.1
2017-12-11T09:19:59.627Z,65
2017-12-11T09:21:18.740Z,64.5
2017-12-11T09:22:30.317Z,64.1
2017-12-11T09:23:57.805Z,63.7
2017-12-11T09:25:42.905Z,64.2
2017-12-11T09:27:02.550Z,64.4
2017-12-11T09:28:38.468Z,64.6
2017-12-11T09:30:13.388Z,64.3
2017-12-11T09:31:43.295Z,63.7
2017-12-11T09:33:03.499Z,64.3
2017-12-11T09:34:38.169Z,63.5
2017-12-11T09:36:22.434Z,63.7
2017-12-11T09:37:43.337Z,64.6
2017-12-11T09:38:53.416Z,65.3
2017-12-11T09:40:57.364Z,65.9
2017-12-11T09:42:42.238Z,65.9
2017-12-11T09:43:55.902Z,65.2
2017-12-11T09:45:24.947Z,65.6
2017-12-11T09:46:48.332Z,65.4
2017-12-11T09:48:02.715Z,66.1
2017-12-11T09:49:24.502Z,66.5
2017-12-11T09:50:43.807Z,66.7
2017-12-11T09:51:55.033Z,67.1
2017-12-11T09:53:05.008Z,66.6
2017-12-11T09:54:46.258Z,66
2017-12-11T09:56:07.735Z,66.4
2017-12-11T09:57:18.413Z,66.7
2017-12-11T09:58:32.121Z,66.8
2017-12-11T10:00:00.158Z,66.7
2017-12-11T10:01:18.992Z,66.7
2017-12-11T10:03:07.497Z,67.1
2017-12-11T10:04:20.579Z,67.3
2017-12-11T10:05:47.561Z,67.9
2017-12-11T10:07:00.147Z,67.6
2017-12-11T10:08:34.073Z,68.1
2017-12-11T10:09:49.038Z,68.1
2017-12-11T10:11:02.673Z,68.1
2017-12-11T10:12:11.788Z,67.7
2017-12-11T10:13:53.849Z,68.6
2017-12-11T10:15:14.365Z,67.4
2017-12-11T10:16:44.262Z,67.7
2017-12-11T10:17:53.577Z,68.4
2017-12-11T10:19:30.031Z,68.6
2017-12-11T10:20:49.074Z,69
2017-12-11T10:22:23.727Z,68.8
2017-12-11T10:23:37.516Z,68.7
2017-12-11T10:25:06.456Z,68.8
2017-12-11T10:26:16.176Z,69
2017-12-11T10:27:36.691Z,69
2017-12-11T10:29:05.376Z,68.5
2017-12-11T10:30:17.343Z,67.8
2017-12-11T10:31:33.700Z,66.5
2017-12-11T10:32:45.373Z,66.8
2017-12-11T10:34:20.158Z,67.5
2017-12-11T10:36:20.493Z,67.7
2017-12-11T10:37:53.960Z,67.9
2017-12-11T10:39:52.409Z,67.3
2017-12-11T10:41:06.656Z,67
2017-12-11T10:42:45.979Z,66.4
2017-12-11T10:43:50.720Z,66.4
2017-12-11T10:45:19.153Z,66.7
2017-12-11T10:46:52.579Z,66.5
2017-12-11T10:48:03.713Z,66.4
2017-12-11T10:49:54.101Z,66.4
2017-12-11T10:51:45.845Z,66.5
2017-12-11T10:53:41.132Z,66.5
2017-12-11T10:54:59.324Z,67.4
2017-12-11T10:56:31.683Z,66.2
2017-12-11T10:57:48.171Z,66.3
2017-12-11T10:59:17.135Z,65.5
2017-12-11T11:00:33.851Z,65.2
2017-12-11T11:02:16.799Z,65.2
2017-12-11T11:03:33.397Z,65.1
2017-12-11T11:05:01.215Z,64.8
2017-12-11T11:07:44.374Z,64.5
2017-12-11T11:09:16.981Z,64.3
2017-12-11T11:10:50.748Z,64.7
2017-12-11T11:12:11.795Z,65.4
2017-12-11T11:13:27.647Z,65.9
2017-12-11T11:14:57.091Z,66.1
2017-12-11T11:16:29.183Z,66.3
2017-12-11T11:17:54.562Z,66.1
2017-12-11T11:19:18.141Z,66.1
2017-12-11T11:21:39.302Z,65.7
2017-12-11T11:23:17.301Z,65.7
2017-12-11T11:24:37.881Z,65.9
2017-12-11T11:26:03.980Z,65.8
2017-12-11T11:27:28.290Z,65.9
2017-12-11T11:30:26.286Z,66.4
2017-12-11T11:31:49.540Z,66.8
2017-12-11T11:33:00.189Z,67.1
2017-12-11T11:34:16.670Z,67.4
2017-12-11T11:35:47.704Z,67.6
2017-12-11T11:37:09.982Z,68
2017-12-11T11:38:39.922Z,68.3
2017-12-11T11:39:52.276Z,68.7
2017-12-11T11:41:11.043Z,68.9
2017-12-11T11:42:23.071Z,69.4
2017-12-11T11:43:35.625Z,69.6
2017-12-11T11:44:58.709Z,69.7
2017-12-11T11:46:20.680Z,69.8
2017-12-11T11:47:50.660Z,69.8
2017-12-11T11:49:35.050Z,69.8
2017-12-11T11:50:44.364Z,69.4
2017-12-11T11:51:56.218Z,69.3
2017-12-11T11:53:08.615Z,70
2017-12-11T11:54:17.847Z,69.2
2017-12-11T11:55:35.529Z,69.2
2017-12-11T11:56:44.048Z,69.3
2017-12-11T11:57:55.320Z,69.3
2017-12-11T11:59:03.898Z,69.6
2017-12-11T12:00:16.090Z,70
2017-12-11T12:01:40.704Z,70.3
2017-12-11T12:02:47.507Z,70
2017-12-11T12:03:54.461Z,69.6
2017-12-11T12:05:05.046Z,69.9
2017-12-11T12:06:10.602Z,69.9
2017-12-11T12:07:20.397Z,69.7
2017-12-11T12:08:42.445Z,69.6
2017-12-11T12:09:53.803Z,69.6
2017-12-11T12:11:05.446Z,69.4
2017-12-11T12:12:14.638Z,70.1
2017-12-11T12:13:54.432Z,70.6
2017-12-11T12:15:05.857Z,70.8
2017-12-11T12:16:15.951Z,70.7
2017-12-11T12:17:21.273Z,70.7
2017-12-11T12:18:31.874Z,70.9
2017-12-11T12:19:39.772Z,71
2017-12-11T12:20:44.268Z,71.7
2017-12-11T12:21:52.422Z,71.4
2017-12-11T12:23:00.162Z,72
2017-12-11T12:24:08.377Z,72.5
2017-12-11T12:25:28.591Z,73
2017-12-11T12:26:34.863Z,72
2017-12-11T12:27:39.635Z,72.1
2017-12-11T12:28:44.051Z,71
2017-12-11T12:29:49.765Z,70.7
2017-12-11T12:30:54.245Z,70.1
2017-12-11T12:31:58.415Z,70.7
2017-12-11T12:33:02.412Z,70.5
2017-12-11T12:34:05.976Z,70.4
2017-12-11T12:35:11.402Z,70.6
2017-12-11T12:36:20.426Z,70.9
2017-12-11T12:37:25.148Z,70.8
2017-12-11T12:38:32.099Z,71.1
2017-12-11T12:39:39.525Z,71.4
2017-12-11T12:40:46.741Z,71.3
2017-12-11T12:41:53.526Z,71.6
2017-12-11T12:43:00.069Z,71.6
2017-12-11T12:44:05.052Z,71.6
2017-12-11T12:45:09.824Z,72
2017-12-11T12:46:13.307Z,71.8
2017-12-11T12:47:20.948Z,71.2
2017-12-11T12:48:25.173Z,71
2017-12-11T12:49:28.644Z,71.2
2017-12-11T12:50:32.022Z,71
2017-12-11T12:51:35.490Z,71.6
2017-12-11T12:52:39.028Z,72
2017-12-11T12:53:42.602Z,72.2
2017-12-11T12:54:46.030Z,71.9
2017-12-11T12:55:50.402Z,71.8
2017-12-11T12:56:54.097Z,71.8
2017-12-11T12:58:01.045Z,71.6
2017-12-11T12:59:04.579Z,71.3
2017-12-11T13:00:08.701Z,71.7
2017-12-11T13:01:12.339Z,72.1
2017-12-11T13:02:24.210Z,72.1
2017-12-11T13:03:32.177Z,72.5
2017-12-11T13:04:38.206Z,72.2
2017-12-11T13:05:44.885Z,71.6
2017-12-11T13:06:52.747Z,71.4
2017-12-11T13:08:00.813Z,71.5
2017-12-11T13:09:17.028Z,71.7
2017-12-11T13:10:23.830Z,72
2017-12-11T13:11:33.160Z,72.4
2017-12-11T13:12:39.457Z,72.7
2017-12-11T13:13:48.945Z,72.7
2017-12-11T13:14:53.740Z,72.7
2017-12-11T13:16:01.076Z,72.5
2017-12-11T13:17:14.267Z,72.2
2017-12-11T13:18:34.730Z,72
2017-12-11T13:19:46.201Z,71.9
2017-12-11T13:21:21.476Z,71.9
2017-12-11T13:22:35.124Z,71.8
2017-12-11T13:23:40.724Z,71.4
2017-12-11T13:24:47.215Z,71.4
2017-12-11T13:25:51.522Z,71
2017-12-11T13:26:54.986Z,70.6
2017-12-11T13:27:59.175Z,70.1
2017-12-11T13:29:02.954Z,70.3
2017-12-11T13:30:07.219Z,70.5
2017-12-11T13:31:10.825Z,70.7
2017-12-11T13:32:20.017Z,71
2017-12-11T13:33:25.271Z,71.3
2017-12-11T13:34:31.481Z,71.6
2017-12-11T13:35:36.784Z,72.1
2017-12-11T13:36:41.475Z,72.2
2017-12-11T13:37:45.833Z,72.5
2017-12-11T13:38:50.657Z,72.7
2017-12-11T13:39:54.719Z,72.5
2017-12-11T13:40:59.824Z,72.7
2017-12-11T13:42:03.579Z,73.4
2017-12-11T13:43:10.015Z,73.4
2017-12-11T13:44:13.644Z,73
2017-12-11T13:45:17.295Z,73.1
2017-12-11T13:46:21.127Z,73.3
2017-12-11T13:47:24.879Z,73.1
2017-12-11T13:48:29.227Z,73.1
2017-12-11T13:49:32.840Z,73
2017-12-11T13:50:37.204Z,73.2
2017-12-11T13:51:40.879Z,73.2
2017-12-11T13:52:44.399Z,73.5
2017-12-11T13:53:51.806Z,73.4
2017-12-11T13:54:55.430Z,73.1
2017-12-11T13:55:58.896Z,73.1
2017-12-11T13:57:02.374Z,73.1
2017-12-11T13:58:06.178Z,73.1
2017-12-11T13:59:09.901Z,73
2017-12-11T14:00:13.932Z,73.2
2017-12-11T14:01:17.522Z,73.8
2017-12-11T14:02:21.083Z,73.9
2017-12-11T14:03:25.295Z,74.1
2017-12-11T14:04:34.282Z,74.3
2017-12-11T14:05:47.095Z,74.2
2017-12-11T14:07:12.873Z,74
2017-12-11T14:08:35.975Z,73.8
2017-12-11T14:09:56.901Z,73.6
2017-12-11T14:11:27.321Z,73.6
2017-12-11T14:12:55.888Z,73.6
2017-12-11T14:14:19.270Z,73.5
2017-12-11T14:15:32.423Z,73.4
2017-12-11T14:16:53.788Z,73.2
2017-12-11T14:18:52.333Z,73.1
2017-12-11T14:21:40.583Z,73.3
2017-12-11T14:22:57.478Z,73
2017-12-11T14:24:12.035Z,72.8
2017-12-11T14:25:50.480Z,72.5
2017-12-11T14:27:06.331Z,72.6
2017-12-11T14:28:28.507Z,72.3
2017-12-11T14:29:40.402Z,71.9
2017-12-11T14:31:16.786Z,71.8
2017-12-11T14:33:14.192Z,71.5
2017-12-11T14:34:26.442Z,71.2
2017-12-11T14:35:42.144Z,71.2
2017-12-11T14:37:07.076Z,71.4
2017-12-11T14:38:17.404Z,71.3
2017-12-11T14:39:31.490Z,71.3
2017-12-11T14:40:42.898Z,70.9
2017-12-11T14:41:58.004Z,70.6
2017-12-11T14:43:18.363Z,69.9
2017-12-11T14:44:32.541Z,70
2017-12-11T14:46:14.072Z,70.5
2017-12-11T14:47:28.149Z,71.4
2017-12-11T14:48:36.063Z,71.9
2017-12-11T14:49:52.457Z,72
2017-12-11T14:51:14.564Z,72.1
2017-12-11T14:52:19.091Z,72.4
2017-12-11T14:53:28.718Z,72.7
2017-12-11T14:55:27.053Z,72.9
2017-12-11T14:56:54.737Z,73.3
2017-12-11T14:58:19.358Z,73.8
2017-12-11T14:59:53.346Z,73.8
2017-12-11T15:01:22.259Z,73.9
2017-12-11T15:02:40.536Z,74.2
2017-12-11T15:03:59.438Z,74.3
2017-12-11T15:05:34.594Z,74.3
2017-12-11T15:06:49.483Z,74.4
2017-12-11T15:08:07.184Z,74.4
2017-12-11T15:09:20.988Z,74.7
2017-12-11T15:10:39.902Z,74.8
2017-12-11T15:12:00.202Z,74.9
2017-12-11T15:13:34.607Z,75
2017-12-11T15:14:53.548Z,75
2017-12-11T15:16:13.586Z,74.8
2017-12-11T15:17:29.181Z,74.8
2017-12-11T15:18:43.043Z,74.7
2017-12-11T15:20:02.338Z,74.7
2017-12-11T15:21:09.813Z,74.7
2017-12-11T15:22:24.750Z,74.7
2017-12-11T15:23:34.879Z,74.5
2017-12-11T15:24:47.276Z,74.5
2017-12-11T15:26:05.465Z,74.5
2017-12-11T15:27:12.950Z,74.5
2017-12-11T15:28:23.593Z,74.7
2017-12-11T15:29:33.923Z,74.7
2017-12-11T15:30:45.991Z,74.8
2017-12-11T15:31:59.172Z,74.8
2017-12-11T15:33:21.929Z,75
2017-12-11T15:34:33.738Z,75
2017-12-11T15:35:43.727Z,75
2017-12-11T15:36:51.119Z,75.2
2017-12-11T15:37:59.542Z,75.2
2017-12-11T15:39:04.055Z,75.3
2017-12-11T15:40:07.484Z,75.3
2017-12-11T15:41:12.057Z,75.4
2017-12-11T15:42:17.516Z,75.5
2017-12-11T15:43:21.704Z,75.5
2017-12-11T15:44:26.799Z,75.8
2017-12-11T15:45:31.289Z,75.7
2017-12-11T15:46:35.507Z,75.8
2017-12-11T15:47:39.540Z,75.9
2017-12-11T15:48:47.189Z,75.9
2017-12-11T15:49:50.680Z,76
2017-12-11T15:50:54.237Z,75.9
2017-12-11T15:51:57.936Z,76.1
2017-12-11T15:53:03.313Z,76.2
2017-12-11T15:54:06.732Z,76.2
2017-12-11T15:55:10.624Z,76.1
2017-12-11T15:56:14.104Z,76.3
2017-12-11T15:57:17.656Z,76.5
2017-12-11T15:58:21.713Z,76.3
2017-12-11T15:59:30.309Z,76.2
2017-12-11T16:00:35.164Z,76
2017-12-11T16:01:39.423Z,76
2017-12-11T16:02:42.908Z,76.1
2017-12-11T16:03:46.457Z,76.1
2017-12-11T16:04:51.240Z,76.4
2017-12-11T16:05:57.290Z,76.5
2017-12-11T16:07:03.729Z,76.6
2017-12-11T16:08:10.097Z,76.7
2017-12-11T16:09:15.094Z,76.8
2017-12-11T16:10:27.195Z,76.8
2017-12-11T16:11:31.358Z,76.7
2017-12-11T16:12:37.498Z,76.7
2017-12-11T16:13:41.047Z,76.8
2017-12-11T16:14:44.697Z,76.9
2017-12-11T16:15:49.065Z,76.9
2017-12-11T16:16:53.133Z,76.8
2017-12-11T16:17:56.696Z,76.6
2017-12-11T16:19:00.728Z,76.3
2017-12-11T16:20:04.433Z,76.3
2017-12-11T16:21:11.530Z,76.4
2017-12-11T16:22:16.508Z,76.4
2017-12-11T16:23:20.432Z,76.3
2017-12-11T16:24:24.613Z,76.3
2017-12-11T16:25:28.842Z,76.2